createdAt,value
2018-07-02T00:00:46.294Z,46.10
2018-07-02T00:03:16.264Z,46.50
2018-07-02T00:06:03.083Z,46.20
2018-07-02T00:08:32.999Z,47.00
2018-07-02T00:11:02.911Z,46.40
2018-07-02T00:13:32.849Z,46.30
2018-07-02T00:16:02.763Z,47.00
2018-07-02T00:18:32.760Z,47.00
2018-07-02T00:21:02.668Z,46.60
2018-07-02T00:23:32.600Z,47.40
2018-07-02T00:26:02.512Z,47.40
2018-07-02T00:28:32.427Z,47.00
2018-07-02T00:31:02.359Z,47.40
2018-07-02T00:33:32.316Z,47.50
2018-07-02T00:36:02.239Z,47.70
2018-07-02T00:38:32.175Z,46.90
2018-07-02T00:41:02.095Z,47.80
2018-07-02T00:43:32.107Z,47.70
2018-07-02T00:46:02.027Z,48.00
2018-07-02T00:48:31.946Z,48.00
2018-07-02T00:51:01.919Z,47.90
2018-07-02T00:53:31.835Z,48.20
2018-07-02T00:56:01.852Z,48.50
2018-07-02T00:58:31.788Z,48.50
2018-07-02T01:01:01.695Z,48.70
2018-07-02T01:03:31.612Z,48.30
2018-07-02T01:06:01.547Z,48.60
2018-07-02T01:08:31.527Z,48.50
2018-07-02T01:11:01.449Z,48.70
2018-07-02T01:13:31.382Z,48.70
2018-07-02T01:16:01.348Z,48.40
2018-07-02T01:18:31.251Z,48.20
2018-07-02T01:21:01.211Z,48.30
2018-07-02T01:23:31.136Z,48.00
2018-07-02T01:26:01.052Z,48.20
2018-07-02T01:28:30.972Z,48.30
2018-07-02T01:31:00.900Z,48.40
2018-07-02T01:33:30.807Z,48.10
2018-07-02T01:36:00.947Z,48.10
2018-07-02T01:38:30.955Z,48.30
2018-07-02T01:41:00.886Z,48.40
2018-07-02T01:43:31.235Z,48.40
2018-07-02T01:46:01.247Z,48.50
2018-07-02T01:48:31.155Z,48.40
2018-07-02T01:51:01.079Z,48.60
2018-07-02T01:53:30.979Z,48.40
2018-07-02T01:58:30.608Z,49.10
2018-07-02T02:01:00.616Z,48.90
2018-07-02T02:03:30.555Z,49.00
2018-07-02T02:06:00.474Z,49.40
2018-07-02T02:08:30.375Z,49.80
2018-07-02T02:11:00.301Z,49.80
2018-07-02T02:13:30.203Z,49.50
2018-07-02T02:16:00.120Z,49.70
2018-07-02T02:18:30.060Z,49.70
2018-07-02T02:20:59.987Z,49.60
2018-07-02T02:25:59.551Z,49.90
2018-07-02T02:28:29.464Z,49.70
2018-07-02T02:30:59.389Z,49.70
2018-07-02T02:33:29.295Z,50.20
2018-07-02T02:35:59.232Z,50.00
2018-07-02T02:38:29.230Z,50.20
2018-07-02T02:40:59.075Z,50.70
2018-07-02T02:43:28.992Z,50.70
2018-07-02T02:45:58.940Z,50.90
2018-07-02T02:48:28.938Z,50.90
2018-07-02T02:50:58.899Z,51.10
2018-07-02T02:53:28.798Z,51.00
2018-07-02T02:55:58.738Z,51.30
2018-07-02T02:58:28.628Z,51.10
2018-07-02T03:00:58.578Z,51.20
2018-07-02T03:03:28.483Z,51.70
2018-07-02T03:05:58.405Z,51.50
2018-07-02T03:08:28.307Z,51.50
2018-07-02T03:10:58.277Z,51.30
2018-07-02T03:13:28.188Z,51.50
2018-07-02T03:15:58.103Z,51.60
2018-07-02T03:18:28.021Z,51.60
2018-07-02T03:20:57.952Z,51.60
2018-07-02T03:25:57.423Z,52.00
2018-07-02T03:28:27.328Z,52.70
2018-07-02T03:30:57.244Z,52.10
2018-07-02T03:33:27.147Z,52.30
2018-07-02T03:35:57.074Z,52.70
2018-07-02T03:38:26.979Z,52.10
2018-07-02T03:40:56.947Z,52.40
2018-07-02T03:43:26.856Z,52.50
2018-07-02T03:45:56.788Z,52.70
2018-07-02T03:48:26.808Z,52.60
2018-07-02T03:50:56.727Z,52.70
2018-07-02T03:53:26.641Z,52.70
2018-07-02T03:55:56.583Z,52.80
2018-07-02T03:58:26.507Z,52.80
2018-07-02T04:00:56.495Z,52.80
2018-07-02T04:03:26.448Z,52.90
2018-07-02T04:05:56.429Z,52.80
2018-07-02T04:08:26.333Z,53.00
2018-07-02T04:10:56.259Z,53.40
2018-07-02T04:13:26.164Z,53.70
2018-07-02T04:15:56.111Z,53.50
2018-07-02T04:18:26.019Z,53.90
2018-07-02T04:20:56.021Z,53.70
2018-07-02T04:23:25.928Z,54.30
2018-07-02T04:25:55.898Z,54.20
2018-07-02T04:28:25.795Z,54.60
2018-07-02T04:30:55.734Z,54.30
2018-07-02T04:33:25.695Z,54.40
2018-07-02T04:35:55.719Z,53.90
2018-07-02T04:38:25.704Z,53.70
2018-07-02T04:40:55.644Z,54.20
2018-07-02T04:43:25.663Z,54.20
2018-07-02T04:45:55.600Z,54.20
2018-07-02T04:48:25.529Z,54.30
2018-07-02T04:50:55.485Z,54.90
2018-07-02T04:53:25.399Z,54.50
2018-07-02T04:55:55.351Z,54.40
2018-07-02T04:58:25.268Z,54.70
2018-07-02T05:00:55.245Z,55.60
2018-07-02T05:03:25.151Z,55.00
2018-07-02T05:05:55.111Z,54.10
2018-07-02T05:08:25.103Z,54.80
2018-07-02T05:10:54.977Z,55.00
2018-07-02T05:13:24.883Z,54.80
2018-07-02T05:15:54.931Z,54.50
2018-07-02T05:18:24.862Z,53.80
2018-07-02T05:20:54.787Z,55.40
2018-07-02T05:23:24.744Z,55.20
2018-07-02T05:25:54.664Z,54.60
2018-07-02T05:28:24.579Z,54.90
2018-07-02T05:30:54.540Z,54.60
2018-07-02T05:33:24.463Z,55.20
2018-07-02T05:35:54.463Z,53.70
2018-07-02T05:38:24.387Z,54.50
2018-07-02T05:40:54.432Z,54.30
2018-07-02T05:43:24.349Z,54.30
2018-07-02T05:45:54.275Z,54.40
2018-07-02T05:48:24.211Z,53.70
2018-07-02T05:50:54.137Z,54.90
2018-07-02T05:53:24.056Z,53.50
2018-07-02T05:55:53.988Z,52.50
2018-07-02T05:58:23.899Z,53.50
2018-07-02T06:00:54.005Z,53.50
2018-07-02T06:03:23.755Z,53.40
2018-07-02T06:05:53.692Z,52.70
2018-07-02T06:08:23.607Z,52.50
2018-07-02T06:10:53.544Z,53.50
2018-07-02T06:13:23.492Z,52.40
2018-07-02T06:15:53.432Z,52.00
2018-07-02T06:18:23.347Z,51.60
2018-07-02T06:20:53.275Z,51.50
2018-07-02T06:23:23.291Z,51.10
2018-07-02T06:25:53.207Z,51.40
2018-07-02T06:28:23.131Z,50.00
2018-07-02T06:30:53.244Z,50.60
2018-07-02T06:35:52.800Z,50.40
2018-07-02T06:38:22.731Z,49.90
2018-07-02T06:40:52.734Z,49.00
2018-07-02T06:43:22.664Z,49.60
2018-07-02T06:45:52.719Z,49.70
2018-07-02T06:48:22.667Z,49.70
2018-07-02T06:50:52.616Z,48.70
2018-07-02T06:53:22.546Z,49.40
2018-07-02T06:55:52.512Z,49.10
2018-07-02T06:58:22.432Z,49.50
2018-07-02T07:00:52.455Z,46.30
2018-07-02T07:03:22.395Z,46.10
2018-07-02T07:05:52.328Z,45.60
2018-07-02T07:08:22.269Z,45.80
2018-07-02T07:10:52.185Z,44.00
2018-07-02T07:13:22.139Z,43.90
2018-07-02T07:15:52.088Z,42.40
2018-07-02T07:18:22.075Z,42.20
2018-07-02T07:20:52.027Z,42.00
2018-07-02T07:23:22.004Z,40.60
2018-07-02T07:25:52.053Z,40.70
2018-07-02T07:28:21.908Z,40.20
2018-07-02T07:30:51.915Z,40.60
2018-07-02T07:33:21.848Z,40.60
2018-07-02T07:35:51.767Z,39.60
2018-07-02T07:38:21.701Z,39.10
2018-07-02T07:40:51.696Z,38.20
2018-07-02T07:43:21.807Z,38.70
2018-07-02T07:45:51.756Z,37.90
2018-07-02T07:48:21.748Z,37.60
2018-07-02T07:50:51.664Z,37.50
2018-07-02T07:53:21.636Z,38.40
2018-07-02T07:55:51.576Z,36.40
2018-07-02T07:58:21.548Z,37.40
2018-07-02T08:00:51.552Z,37.90
2018-07-02T08:03:21.756Z,38.10
2018-07-02T08:05:51.692Z,37.60
2018-07-02T08:08:21.593Z,36.90
2018-07-02T08:10:51.557Z,36.90
2018-07-02T08:13:21.616Z,36.10
2018-07-02T08:15:51.547Z,36.10
2018-07-02T08:18:21.463Z,35.90
2018-07-02T08:20:51.395Z,37.70
2018-07-02T08:23:21.355Z,37.40
2018-07-02T08:25:51.283Z,36.40
2018-07-02T08:28:21.207Z,36.30
2018-07-02T08:30:51.200Z,37.30
2018-07-02T08:33:21.308Z,38.40
2018-07-02T08:35:51.251Z,38.40
2018-07-02T08:38:21.164Z,37.80
2018-07-02T08:40:51.203Z,38.40
2018-07-02T08:43:21.360Z,38.40
2018-07-02T08:45:51.316Z,39.00
2018-07-02T08:48:21.231Z,38.50
2018-07-02T08:50:51.151Z,39.00
2018-07-02T08:53:21.128Z,37.90
2018-07-02T08:55:51.058Z,37.40
2018-07-02T08:58:21.055Z,38.40
2018-07-02T09:00:50.980Z,37.20
2018-07-02T09:05:50.472Z,37.60
2018-07-02T09:08:20.383Z,37.10
2018-07-02T09:10:50.343Z,38.10
2018-07-02T09:13:20.336Z,37.30
2018-07-02T09:15:50.259Z,36.20
2018-07-02T09:18:20.204Z,36.80
2018-07-02T09:20:50.126Z,36.20
2018-07-02T09:23:20.046Z,36.20
2018-07-02T09:28:19.556Z,35.70
2018-07-02T09:30:49.566Z,36.20
2018-07-02T09:33:19.503Z,36.20
2018-07-02T09:35:49.483Z,37.30
2018-07-02T09:38:19.380Z,35.70
2018-07-02T09:40:49.316Z,36.40
2018-07-02T09:43:19.236Z,37.20
2018-07-02T09:45:49.172Z,34.30
2018-07-02T09:48:19.103Z,34.20
2018-07-02T09:50:49.057Z,33.20
2018-07-02T09:55:48.946Z,35.10
2018-07-02T09:58:18.625Z,36.10
2018-07-02T10:00:48.551Z,35.50
2018-07-02T10:03:18.467Z,33.60
2018-07-02T10:05:48.392Z,33.90
2018-07-02T10:08:18.303Z,34.90
2018-07-02T10:10:48.243Z,32.70
2018-07-02T10:13:18.172Z,32.40
2018-07-02T10:15:48.096Z,33.40
2018-07-02T10:18:18.033Z,34.10
2018-07-02T10:20:47.971Z,34.50
2018-07-02T10:23:18.044Z,34.50
2018-07-02T10:25:48.034Z,33.10
2018-07-02T10:28:17.932Z,34.70
2018-07-02T10:30:47.905Z,31.70
2018-07-02T10:33:17.755Z,32.30
2018-07-02T10:35:47.720Z,31.90
2018-07-02T10:38:17.669Z,33.40
2018-07-02T10:40:47.604Z,33.60
2018-07-02T10:43:17.592Z,32.80
2018-07-02T10:45:47.516Z,33.50
2018-07-02T10:48:17.747Z,32.00
2018-07-02T10:50:47.668Z,34.30
2018-07-02T10:53:17.587Z,31.10
2018-07-02T10:55:47.597Z,31.50
2018-07-02T10:58:17.444Z,32.80
2018-07-02T11:00:47.418Z,31.60
2018-07-02T11:03:17.508Z,31.10
2018-07-02T11:05:47.441Z,31.90
2018-07-02T11:08:17.360Z,30.20
2018-07-02T11:10:47.325Z,31.40
2018-07-02T11:13:17.240Z,32.40
2018-07-02T11:15:47.171Z,31.80
2018-07-02T11:18:17.136Z,33.00
2018-07-02T11:20:47.223Z,32.00
2018-07-02T11:23:17.164Z,32.30
2018-07-02T11:25:47.111Z,31.90
2018-07-02T11:28:17.154Z,32.40
2018-07-02T11:30:47.088Z,31.00
2018-07-02T11:33:17.014Z,29.90
2018-07-02T11:35:47.011Z,30.50
2018-07-02T11:38:16.955Z,31.20
2018-07-02T11:40:46.968Z,31.20
2018-07-02T11:43:16.892Z,31.40
2018-07-02T11:45:46.816Z,31.40
2018-07-02T11:48:16.743Z,30.00
2018-07-02T11:50:46.667Z,30.00
2018-07-02T11:53:16.596Z,29.10
2018-07-02T11:55:46.512Z,29.80
2018-07-02T11:58:16.439Z,28.30
2018-07-02T12:00:46.526Z,28.00
2018-07-02T12:03:16.476Z,30.90
2018-07-02T12:05:46.487Z,29.30
2018-07-02T12:08:16.423Z,29.90
2018-07-02T12:10:46.364Z,29.40
2018-07-02T12:13:16.293Z,30.50
2018-07-02T12:15:46.200Z,29.00
2018-07-02T12:18:16.215Z,29.40
2018-07-02T12:20:46.131Z,31.60
2018-07-02T12:23:16.059Z,28.80
2018-07-02T12:25:45.999Z,29.60
2018-07-02T12:28:15.923Z,29.60
2018-07-02T12:30:45.991Z,31.00
2018-07-02T12:33:15.951Z,28.10
2018-07-02T12:35:45.884Z,28.60
2018-07-02T12:38:15.834Z,29.00
2018-07-02T12:40:45.762Z,27.80
2018-07-02T12:43:15.697Z,28.70
2018-07-02T12:45:45.620Z,29.10
2018-07-02T12:48:15.551Z,28.30
2018-07-02T12:50:45.463Z,27.80
2018-07-02T12:53:15.391Z,29.10
2018-07-02T12:55:45.315Z,28.80
2018-07-02T12:58:15.260Z,28.60
2018-07-02T13:00:45.180Z,27.60
2018-07-02T13:03:15.120Z,28.90
2018-07-02T13:05:45.033Z,28.60
2018-07-02T13:08:14.956Z,28.50
2018-07-02T13:10:44.880Z,27.90
2018-07-02T13:13:14.835Z,29.40
2018-07-02T13:15:44.758Z,28.20
2018-07-02T13:18:14.687Z,27.50
2018-07-02T13:20:44.697Z,27.80
2018-07-02T13:23:14.568Z,27.50
2018-07-02T13:25:44.500Z,27.00
2018-07-02T13:28:14.452Z,27.80
2018-07-02T13:30:44.493Z,27.20
2018-07-02T13:33:14.435Z,27.80
2018-07-02T13:35:44.360Z,28.40
2018-07-02T13:38:14.296Z,28.80
2018-07-02T13:40:44.268Z,27.00
2018-07-02T13:43:14.208Z,28.70
2018-07-02T13:45:44.131Z,25.90
2018-07-02T13:48:14.183Z,26.20
2018-07-02T13:50:44.099Z,26.70
2018-07-02T13:53:14.031Z,26.80
2018-07-02T13:55:43.969Z,26.00
2018-07-02T13:58:13.932Z,27.40
2018-07-02T14:00:43.868Z,27.60
2018-07-02T14:03:13.827Z,26.50
2018-07-02T14:05:43.712Z,25.90
2018-07-02T14:08:13.665Z,27.80
2018-07-02T14:10:43.573Z,27.90
2018-07-02T14:13:13.545Z,26.80
2018-07-02T14:15:43.460Z,26.20
2018-07-02T14:18:13.407Z,26.00
2018-07-02T14:20:43.339Z,27.00
2018-07-02T14:23:13.284Z,29.60
2018-07-02T14:25:43.243Z,27.30
2018-07-02T14:28:13.132Z,27.10
2018-07-02T14:30:43.913Z,26.90
2018-07-02T14:33:19.356Z,26.40
2018-07-02T14:35:49.380Z,25.90
2018-07-02T14:38:19.418Z,26.60
2018-07-02T14:40:49.419Z,27.40
2018-07-02T14:43:19.500Z,26.70
2018-07-02T14:45:49.424Z,26.00
2018-07-02T14:48:21.472Z,25.70
2018-07-02T14:50:52.447Z,26.30
2018-07-02T14:53:23.047Z,26.00
2018-07-02T14:55:54.635Z,26.40
2018-07-02T14:58:25.611Z,25.20
2018-07-02T15:00:55.583Z,25.40
2018-07-02T15:03:25.563Z,27.10
2018-07-02T15:05:55.683Z,26.00
2018-07-02T15:08:25.608Z,26.40
2018-07-02T15:10:55.535Z,26.10
2018-07-02T15:13:25.452Z,26.70
2018-07-02T15:15:55.459Z,26.30
2018-07-02T15:18:25.504Z,25.60
2018-07-02T15:20:55.423Z,26.70
2018-07-02T15:23:25.352Z,26.80
2018-07-02T15:25:55.288Z,26.60
2018-07-02T15:28:25.206Z,25.90
2018-07-02T15:30:55.129Z,26.30
2018-07-02T15:33:25.076Z,25.70
2018-07-02T15:35:55.037Z,25.70
2018-07-02T15:40:54.835Z,24.80
2018-07-02T15:43:24.765Z,25.50
2018-07-02T15:45:54.701Z,26.10
2018-07-02T15:48:24.636Z,26.20
2018-07-02T15:50:54.556Z,26.00
2018-07-02T15:53:24.472Z,25.90
2018-07-02T15:55:54.407Z,26.40
2018-07-02T15:58:24.319Z,25.40
2018-07-02T16:00:54.258Z,25.60
2018-07-02T16:03:24.205Z,24.90
2018-07-02T16:05:54.144Z,25.50
2018-07-02T16:08:24.171Z,26.00
2018-07-02T16:10:54.139Z,26.20
2018-07-02T16:13:24.067Z,25.60
2018-07-02T16:15:54.002Z,26.60
2018-07-02T16:18:23.923Z,25.90
2018-07-02T16:20:53.924Z,25.40
2018-07-02T16:23:23.861Z,25.20
2018-07-02T16:25:53.884Z,25.20
2018-07-02T16:28:23.831Z,26.10
2018-07-02T16:30:53.792Z,26.10
2018-07-02T16:33:23.722Z,25.50
2018-07-02T16:35:53.656Z,26.40
2018-07-02T16:38:23.571Z,26.90
2018-07-02T16:40:53.524Z,27.30
2018-07-02T16:43:23.449Z,25.70
2018-07-02T16:45:53.394Z,25.90
2018-07-02T16:48:23.309Z,26.00
2018-07-02T16:50:53.264Z,25.90
2018-07-02T16:53:23.244Z,25.80
2018-07-02T16:55:53.169Z,24.80
2018-07-02T16:58:23.111Z,23.20
2018-07-02T17:00:53.033Z,22.90
2018-07-02T17:03:22.957Z,24.30
2018-07-02T17:05:52.944Z,25.70
2018-07-02T17:08:22.865Z,25.70
2018-07-02T17:10:52.813Z,25.20
2018-07-02T17:13:22.759Z,25.70
2018-07-02T17:15:52.651Z,25.20
2018-07-02T17:18:22.584Z,23.50
2018-07-02T17:20:52.520Z,23.40
2018-07-02T17:23:22.563Z,23.20
2018-07-02T17:25:52.504Z,23.10
2018-07-02T17:28:22.504Z,25.30
2018-07-02T17:30:52.423Z,26.90
2018-07-02T17:33:22.352Z,26.70
2018-07-02T17:35:52.279Z,28.80
2018-07-02T17:38:22.205Z,27.60
2018-07-02T17:40:52.141Z,29.50
2018-07-02T17:43:22.091Z,32.60
2018-07-02T17:45:52.076Z,32.50
2018-07-02T17:48:21.996Z,32.90
2018-07-02T17:50:51.951Z,35.10
2018-07-02T17:53:21.863Z,36.60
2018-07-02T17:55:51.852Z,37.80
2018-07-02T17:58:21.796Z,36.80
2018-07-02T18:00:51.721Z,34.90
2018-07-02T18:03:21.619Z,36.80
2018-07-02T18:05:51.552Z,37.40
2018-07-02T18:08:21.472Z,37.70
2018-07-02T18:10:51.412Z,37.70
2018-07-02T18:13:21.337Z,36.70
2018-07-02T18:15:51.267Z,39.00
2018-07-02T18:18:21.215Z,39.10
2018-07-02T18:20:51.143Z,40.10
2018-07-02T18:25:50.644Z,40.20
2018-07-02T18:28:20.716Z,39.60
2018-07-02T18:30:50.864Z,41.40
2018-07-02T18:33:21.221Z,36.70
2018-07-02T18:35:51.150Z,39.80
2018-07-02T18:38:21.086Z,40.90
2018-07-02T18:40:51.096Z,41.80
2018-07-02T18:45:50.831Z,41.60
2018-07-02T18:48:20.748Z,42.50
2018-07-02T18:50:50.682Z,43.50
2018-07-02T18:53:20.607Z,43.40
2018-07-02T18:55:50.556Z,43.30
2018-07-02T18:58:20.492Z,43.10
2018-07-02T19:00:50.428Z,43.20
2018-07-02T19:03:20.368Z,42.70
2018-07-02T19:05:50.300Z,45.50
2018-07-02T19:08:20.243Z,42.90
2018-07-02T19:10:50.180Z,43.70
2018-07-02T19:13:20.107Z,43.20
2018-07-02T19:15:50.052Z,43.70
2018-07-02T19:18:19.979Z,44.10
2018-07-02T19:20:49.911Z,44.80
2018-07-02T19:23:19.846Z,45.30
2018-07-02T19:25:49.777Z,44.80
2018-07-02T19:28:19.701Z,45.00
2018-07-02T19:30:49.704Z,45.10
2018-07-02T19:33:19.631Z,45.70
2018-07-02T19:35:49.572Z,45.90
2018-07-02T19:38:19.500Z,44.90
2018-07-02T19:40:49.596Z,44.10
2018-07-02T19:43:19.712Z,44.50
2018-07-02T19:45:49.639Z,46.10
2018-07-02T19:48:19.629Z,45.40
2018-07-02T19:50:49.590Z,45.40
2018-07-02T19:53:19.561Z,46.60
2018-07-02T19:55:49.485Z,46.40
2018-07-02T19:58:19.438Z,48.00
2018-07-02T20:00:49.388Z,47.50
2018-07-02T20:03:19.363Z,46.20
2018-07-02T20:05:49.280Z,47.20
2018-07-02T20:08:19.196Z,48.40
2018-07-02T20:10:49.104Z,47.10
2018-07-02T20:13:19.047Z,46.90
2018-07-02T20:15:48.956Z,47.60
2018-07-02T20:18:18.946Z,48.40
2018-07-02T20:20:48.835Z,48.70
2018-07-02T20:23:18.752Z,49.90
2018-07-02T20:25:48.763Z,50.00
2018-07-02T20:28:18.685Z,50.80
2018-07-02T20:30:48.634Z,50.00
2018-07-02T20:33:18.672Z,50.40
2018-07-02T20:35:48.600Z,50.80
2018-07-02T20:38:18.543Z,51.20
2018-07-02T20:40:48.452Z,51.80
2018-07-02T20:43:18.398Z,50.70
2018-07-02T20:45:48.328Z,50.40
2018-07-02T20:48:18.231Z,51.10
2018-07-02T20:50:48.159Z,51.50
2018-07-02T20:53:18.194Z,52.60
2018-07-02T20:55:48.104Z,50.80
2018-07-02T20:58:18.036Z,51.30
2018-07-02T21:00:47.951Z,51.30
2018-07-02T21:03:17.877Z,50.90
2018-07-02T21:05:47.788Z,52.30
2018-07-02T21:08:17.744Z,50.50
2018-07-02T21:10:47.665Z,51.50
2018-07-02T21:13:17.596Z,51.80
2018-07-02T21:15:47.519Z,51.60
2018-07-02T21:18:17.455Z,51.20
2018-07-02T21:20:47.380Z,51.80
2018-07-02T21:23:17.460Z,51.10
2018-07-02T21:25:47.452Z,52.00
2018-07-02T21:28:17.377Z,51.90
2018-07-02T21:30:47.299Z,52.30
2018-07-02T21:33:17.232Z,52.00
2018-07-02T21:35:47.151Z,51.90
2018-07-02T21:38:17.081Z,52.50
2018-07-02T21:40:47.004Z,52.30
2018-07-02T21:43:16.940Z,51.70
2018-07-02T21:45:46.879Z,52.50
2018-07-02T21:48:16.830Z,52.70
2018-07-02T21:50:46.731Z,51.90
2018-07-02T21:53:16.643Z,52.70
2018-07-02T21:55:46.599Z,52.30
2018-07-02T21:58:16.562Z,52.80
2018-07-02T22:00:46.650Z,52.80
2018-07-02T22:03:16.578Z,53.10
2018-07-02T22:05:46.491Z,52.80
2018-07-02T22:08:16.416Z,52.80
2018-07-02T22:10:46.384Z,51.20
2018-07-02T22:13:16.328Z,50.30
2018-07-02T22:15:46.244Z,50.80
2018-07-02T22:18:16.219Z,51.00
2018-07-02T22:20:46.206Z,50.90
2018-07-02T22:23:16.141Z,49.30
2018-07-02T22:25:46.128Z,51.40
2018-07-02T22:28:16.068Z,51.30
2018-07-02T22:30:45.976Z,51.80
2018-07-02T22:33:15.896Z,51.70
2018-07-02T22:35:45.808Z,51.70
2018-07-02T22:38:15.729Z,52.10
2018-07-02T22:40:45.635Z,51.90
2018-07-02T22:43:15.573Z,51.60
2018-07-02T22:45:45.539Z,50.50
2018-07-02T22:48:15.537Z,48.70
2018-07-02T22:50:45.534Z,47.90
2018-07-02T22:53:15.464Z,49.60
2018-07-02T22:56:01.222Z,49.00
2018-07-02T22:58:31.136Z,50.40
2018-07-02T23:01:01.445Z,51.40
2018-07-02T23:03:31.381Z,50.70
2018-07-02T23:06:01.297Z,51.30
2018-07-02T23:08:31.231Z,51.70
2018-07-02T23:11:01.148Z,52.00
2018-07-02T23:13:31.069Z,51.20
2018-07-02T23:16:02.319Z,49.60
2018-07-02T23:18:33.232Z,49.00
2018-07-02T23:21:03.131Z,48.50
2018-07-02T23:23:34.067Z,47.40
2018-07-02T23:26:03.997Z,46.60
2018-07-02T23:28:34.012Z,46.20
2018-07-02T23:31:03.982Z,47.20
2018-07-02T23:33:33.855Z,46.30
2018-07-02T23:38:33.332Z,46.00
2018-07-02T23:41:03.315Z,46.00
2018-07-02T23:43:33.244Z,45.50
2018-07-02T23:46:03.304Z,45.10
2018-07-02T23:48:33.235Z,45.10
2018-07-02T23:51:03.147Z,45.30
2018-07-02T23:53:33.079Z,45.20
2018-07-02T23:56:03.063Z,44.80
2018-07-02T23:58:32.995Z,44.20
